sensor_id;sensor_type;location;lat;lon;timestamp;P1;durP1;ratioP1;P2;durP2;ratioP2
11113;SDS011;5610;52.154;9.198;2022-09-13T00:01:44;6.70;;;6.10;;
11113;SDS011;5610;52.154;9.198;2022-09-13T00:04:30;7.87;;;6.20;;
11113;SDS011;5610;52.154;9.198;2022-09-13T00:07:17;7.17;;;6.47;;
11113;SDS011;5610;52.154;9.198;2022-09-13T00:10:02;7.70;;;6.13;;
11113;SDS011;5610;52.154;9.198;2022-09-13T00:12:48;9.23;;;6.13;;
11113;SDS011;5610;52.154;9.198;2022-09-13T00:15:34;5.90;;;5.30;;
11113;SDS011;5610;52.154;9.198;2022-09-13T00:18:19;7.67;;;6.00;;
11113;SDS011;5610;52.154;9.198;2022-09-13T00:21:06;7.07;;;6.37;;
11113;SDS011;5610;52.154;9.198;2022-09-13T00:23:54;6.13;;;5.63;;
11113;SDS011;5610;52.154;9.198;2022-09-13T00:26:39;7.10;;;6.40;;
11113;SDS011;5610;52.154;9.198;2022-09-13T00:29:25;7.07;;;6.27;;
11113;SDS011;5610;52.154;9.198;2022-09-13T00:32:10;7.03;;;6.33;;
11113;SDS011;5610;52.154;9.198;2022-09-13T00:34:55;7.53;;;6.40;;
11113;SDS011;5610;52.154;9.198;2022-09-13T00:37:41;6.10;;;5.60;;
11113;SDS011;5610;52.154;9.198;2022-09-13T00:40:27;7.20;;;6.43;;
11113;SDS011;5610;52.154;9.198;2022-09-13T00:43:15;7.87;;;6.40;;
11113;SDS011;5610;52.154;9.198;2022-09-13T00:46:02;8.20;;;6.03;;
11113;SDS011;5610;52.154;9.198;2022-09-13T00:48:48;6.73;;;6.03;;
11113;SDS011;5610;52.154;9.198;2022-09-13T00:51:36;7.90;;;6.37;;
11113;SDS011;5610;52.154;9.198;2022-09-13T00:54:23;7.93;;;6.63;;
11113;SDS011;5610;52.154;9.198;2022-09-13T00:57:15;6.93;;;6.27;;
11113;SDS011;5610;52.154;9.198;2022-09-13T01:00:04;6.70;;;6.10;;
11113;SDS011;5610;52.154;9.198;2022-09-13T01:02:57;8.50;;;6.83;;
11113;SDS011;5610;52.154;9.198;2022-09-13T01:05:46;8.47;;;6.43;;
11113;SDS011;5610;52.154;9.198;2022-09-13T01:08:35;6.77;;;6.17;;
11113;SDS011;5610;52.154;9.198;2022-09-13T01:11:25;7.20;;;5.87;;
11113;SDS011;5610;52.154;9.198;2022-09-13T01:14:15;7.00;;;6.30;;
11113;SDS011;5610;52.154;9.198;2022-09-13T01:17:01;7.87;;;6.03;;
11113;SDS011;5610;52.154;9.198;2022-09-13T01:19:47;7.33;;;6.50;;
11113;SDS011;5610;52.154;9.198;2022-09-13T01:22:51;9.50;;;6.33;;
11113;SDS011;5610;52.154;9.198;2022-09-13T01:26:06;6.73;;;6.03;;
11113;SDS011;5610;52.154;9.198;2022-09-13T01:29:19;11.03;;;6.47;;
11113;SDS011;5610;52.154;9.198;2022-09-13T01:32:27;6.93;;;6.33;;
11113;SDS011;5610;52.154;9.198;2022-09-13T01:35:21;7.03;;;5.80;;
11113;SDS011;5610;52.154;9.198;2022-09-13T01:38:15;6.63;;;6.00;;
11113;SDS011;5610;52.154;9.198;2022-09-13T01:41:15;8.10;;;6.10;;
11113;SDS011;5610;52.154;9.198;2022-09-13T01:44:13;6.80;;;6.10;;
11113;SDS011;5610;52.154;9.198;2022-09-13T01:47:14;6.30;;;5.67;;
11113;SDS011;5610;52.154;9.198;2022-09-13T01:50:12;6.50;;;5.90;;
11113;SDS011;5610;52.154;9.198;2022-09-13T01:53:04;6.57;;;5.97;;
11113;SDS011;5610;52.154;9.198;2022-09-13T01:55:55;8.53;;;6.03;;
11113;SDS011;5610;52.154;9.198;2022-09-13T01:58:47;7.13;;;6.53;;
11113;SDS011;5610;52.154;9.198;2022-09-13T02:01:38;6.37;;;5.73;;
11113;SDS011;5610;52.154;9.198;2022-09-13T02:04:32;6.50;;;5.90;;
11113;SDS011;5610;52.154;9.198;2022-09-13T02:07:25;8.77;;;6.30;;
11113;SDS011;5610;52.154;9.198;2022-09-13T02:10:19;7.53;;;6.90;;
11113;SDS011;5610;52.154;9.198;2022-09-13T02:13:09;7.30;;;6.33;;
11113;SDS011;5610;52.154;9.198;2022-09-13T02:16:03;6.50;;;5.90;;
11113;SDS011;5610;52.154;9.198;2022-09-13T02:18:55;7.03;;;6.43;;
11113;SDS011;5610;52.154;9.198;2022-09-13T02:21:45;6.57;;;5.90;;
11113;SDS011;5610;52.154;9.198;2022-09-13T02:24:34;7.03;;;6.43;;
11113;SDS011;5610;52.154;9.198;2022-09-13T02:27:24;6.83;;;6.20;;
11113;SDS011;5610;52.154;9.198;2022-09-13T02:30:12;7.00;;;6.37;;
11113;SDS011;5610;52.154;9.198;2022-09-13T02:33:01;7.53;;;6.77;;
11113;SDS011;5610;52.154;9.198;2022-09-13T02:35:50;6.73;;;5.97;;
11113;SDS011;5610;52.154;9.198;2022-09-13T02:38:41;6.60;;;6.00;;
11113;SDS011;5610;52.154;9.198;2022-09-13T02:41:33;8.43;;;6.57;;
11113;SDS011;5610;52.154;9.198;2022-09-13T02:44:24;6.27;;;5.67;;
11113;SDS011;5610;52.154;9.198;2022-09-13T02:47:18;9.23;;;6.60;;
11113;SDS011;5610;52.154;9.198;2022-09-13T02:50:27;7.47;;;6.77;;
11113;SDS011;5610;52.154;9.198;2022-09-13T02:53:22;7.60;;;6.80;;
11113;SDS011;5610;52.154;9.198;2022-09-13T02:56:13;8.03;;;7.17;;
11113;SDS011;5610;52.154;9.198;2022-09-13T02:59:08;6.20;;;5.60;;
11113;SDS011;5610;52.154;9.198;2022-09-13T03:02:00;6.60;;;6.10;;
11113;SDS011;5610;52.154;9.198;2022-09-13T03:04:49;7.00;;;6.30;;
11113;SDS011;5610;52.154;9.198;2022-09-13T03:07:35;7.40;;;6.70;;
11113;SDS011;5610;52.154;9.198;2022-09-13T03:10:20;7.20;;;6.50;;
11113;SDS011;5610;52.154;9.198;2022-09-13T03:13:17;8.83;;;7.77;;
11113;SDS011;5610;52.154;9.198;2022-09-13T03:16:18;9.20;;;7.70;;
11113;SDS011;5610;52.154;9.198;2022-09-13T03:19:21;8.43;;;7.63;;
11113;SDS011;5610;52.154;9.198;2022-09-13T03:22:20;9.00;;;7.50;;
11113;SDS011;5610;52.154;9.198;2022-09-13T03:25:27;8.17;;;7.37;;
11113;SDS011;5610;52.154;9.198;2022-09-13T03:28:23;8.17;;;7.43;;
11113;SDS011;5610;52.154;9.198;2022-09-13T03:31:20;8.30;;;7.50;;
11113;SDS011;5610;52.154;9.198;2022-09-13T03:34:14;7.63;;;6.60;;
11113;SDS011;5610;52.154;9.198;2022-09-13T03:37:11;8.60;;;7.80;;
11113;SDS011;5610;52.154;9.198;2022-09-13T03:40:04;8.80;;;8.00;;
11113;SDS011;5610;52.154;9.198;2022-09-13T03:42:54;8.40;;;7.50;;
11113;SDS011;5610;52.154;9.198;2022-09-13T03:45:46;8.67;;;7.60;;
11113;SDS011;5610;52.154;9.198;2022-09-13T03:48:38;8.97;;;7.40;;
11113;SDS011;5610;52.154;9.198;2022-09-13T03:51:25;8.50;;;7.70;;
11113;SDS011;5610;52.154;9.198;2022-09-13T03:54:13;8.53;;;7.73;;
11113;SDS011;5610;52.154;9.198;2022-09-13T03:57:05;8.77;;;7.90;;
11113;SDS011;5610;52.154;9.198;2022-09-13T03:59:52;9.80;;;8.40;;
11113;SDS011;5610;52.154;9.198;2022-09-13T04:02:39;8.40;;;7.53;;
11113;SDS011;5610;52.154;9.198;2022-09-13T04:05:26;9.60;;;8.30;;
11113;SDS011;5610;52.154;9.198;2022-09-13T04:08:12;9.13;;;8.23;;
11113;SDS011;5610;52.154;9.198;2022-09-13T04:10:57;8.60;;;7.80;;
11113;SDS011;5610;52.154;9.198;2022-09-13T04:13:44;9.07;;;7.73;;
11113;SDS011;5610;52.154;9.198;2022-09-13T04:16:30;7.73;;;7.03;;
11113;SDS011;5610;52.154;9.198;2022-09-13T04:19:15;7.93;;;7.23;;
11113;SDS011;5610;52.154;9.198;2022-09-13T04:22:01;8.50;;;7.33;;
11113;SDS011;5610;52.154;9.198;2022-09-13T04:24:46;8.30;;;7.57;;
11113;SDS011;5610;52.154;9.198;2022-09-13T04:27:31;8.23;;;7.43;;
11113;SDS011;5610;52.154;9.198;2022-09-13T04:30:18;7.97;;;7.07;;
11113;SDS011;5610;52.154;9.198;2022-09-13T04:33:03;7.57;;;6.97;;
11113;SDS011;5610;52.154;9.198;2022-09-13T04:35:52;7.40;;;6.70;;
11113;SDS011;5610;52.154;9.198;2022-09-13T04:38:39;8.97;;;7.47;;
11113;SDS011;5610;52.154;9.198;2022-09-13T04:41:25;8.00;;;7.30;;
11113;SDS011;5610;52.154;9.198;2022-09-13T04:44:10;8.00;;;7.30;;
11113;SDS011;5610;52.154;9.198;2022-09-13T04:46:56;7.30;;;6.70;;
11113;SDS011;5610;52.154;9.198;2022-09-13T04:49:41;7.53;;;6.80;;
11113;SDS011;5610;52.154;9.198;2022-09-13T04:52:26;7.40;;;6.70;;
11113;SDS011;5610;52.154;9.198;2022-09-13T04:55:13;7.07;;;6.30;;
11113;SDS011;5610;52.154;9.198;2022-09-13T04:57:58;8.73;;;7.57;;
11113;SDS011;5610;52.154;9.198;2022-09-13T05:00:44;8.80;;;8.03;;
11113;SDS011;5610;52.154;9.198;2022-09-13T05:03:29;8.63;;;7.83;;
11113;SDS011;5610;52.154;9.198;2022-09-13T05:06:15;8.50;;;7.70;;
11113;SDS011;5610;52.154;9.198;2022-09-13T05:09:01;8.60;;;7.73;;
11113;SDS011;5610;52.154;9.198;2022-09-13T05:11:49;12.40;;;8.73;;
11113;SDS011;5610;52.154;9.198;2022-09-13T05:14:34;11.60;;;9.20;;
11113;SDS011;5610;52.154;9.198;2022-09-13T05:17:19;9.50;;;8.50;;
11113;SDS011;5610;52.154;9.198;2022-09-13T05:20:05;9.47;;;8.57;;
11113;SDS011;5610;52.154;9.198;2022-09-13T05:22:50;9.77;;;8.77;;
11113;SDS011;5610;52.154;9.198;2022-09-13T05:25:35;9.70;;;8.70;;
11113;SDS011;5610;52.154;9.198;2022-09-13T05:28:22;8.80;;;8.00;;
11113;SDS011;5610;52.154;9.198;2022-09-13T05:31:09;9.37;;;8.57;;
11113;SDS011;5610;52.154;9.198;2022-09-13T05:33:59;10.90;;;8.30;;
11113;SDS011;5610;52.154;9.198;2022-09-13T05:36:46;10.30;;;9.37;;
11113;SDS011;5610;52.154;9.198;2022-09-13T05:39:33;9.40;;;8.50;;
11113;SDS011;5610;52.154;9.198;2022-09-13T05:42:19;10.33;;;9.33;;
11113;SDS011;5610;52.154;9.198;2022-09-13T05:45:07;8.90;;;8.20;;
11113;SDS011;5610;52.154;9.198;2022-09-13T05:47:53;8.90;;;8.10;;
11113;SDS011;5610;52.154;9.198;2022-09-13T05:50:38;10.87;;;8.70;;
11113;SDS011;5610;52.154;9.198;2022-09-13T05:53:24;9.60;;;8.60;;
11113;SDS011;5610;52.154;9.198;2022-09-13T05:56:09;10.27;;;8.17;;
11113;SDS011;5610;52.154;9.198;2022-09-13T05:58:56;9.50;;;8.57;;
11113;SDS011;5610;52.154;9.198;2022-09-13T06:01:43;8.70;;;7.80;;
11113;SDS011;5610;52.154;9.198;2022-09-13T06:04:29;9.70;;;8.50;;
11113;SDS011;5610;52.154;9.198;2022-09-13T06:07:14;8.90;;;8.03;;
11113;SDS011;5610;52.154;9.198;2022-09-13T06:09:59;8.00;;;7.30;;
11113;SDS011;5610;52.154;9.198;2022-09-13T06:12:44;8.10;;;7.30;;
11113;SDS011;5610;52.154;9.198;2022-09-13T06:15:30;9.53;;;8.40;;
11113;SDS011;5610;52.154;9.198;2022-09-13T06:18:17;9.00;;;8.10;;
11113;SDS011;5610;52.154;9.198;2022-09-13T06:21:03;8.57;;;7.80;;
11113;SDS011;5610;52.154;9.198;2022-09-13T06:23:50;9.10;;;8.30;;
11113;SDS011;5610;52.154;9.198;2022-09-13T06:26:37;10.07;;;9.00;;
11113;SDS011;5610;52.154;9.198;2022-09-13T06:29:22;8.70;;;7.77;;
11113;SDS011;5610;52.154;9.198;2022-09-13T06:32:07;8.30;;;7.27;;
11113;SDS011;5610;52.154;9.198;2022-09-13T06:34:55;7.87;;;7.07;;
11113;SDS011;5610;52.154;9.198;2022-09-13T06:37:41;8.10;;;7.40;;
11113;SDS011;5610;52.154;9.198;2022-09-13T06:40:27;8.40;;;7.70;;
11113;SDS011;5610;52.154;9.198;2022-09-13T06:43:12;8.40;;;7.50;;
11113;SDS011;5610;52.154;9.198;2022-09-13T06:45:59;8.47;;;7.63;;
11113;SDS011;5610;52.154;9.198;2022-09-13T06:48:45;8.97;;;8.17;;
11113;SDS011;5610;52.154;9.198;2022-09-13T06:51:32;8.70;;;7.73;;
11113;SDS011;5610;52.154;9.198;2022-09-13T06:54:19;10.63;;;7.80;;
11113;SDS011;5610;52.154;9.198;2022-09-13T06:57:04;7.60;;;6.90;;
11113;SDS011;5610;52.154;9.198;2022-09-13T06:59:49;8.30;;;7.53;;
11113;SDS011;5610;52.154;9.198;2022-09-13T07:02:34;8.60;;;7.70;;
11113;SDS011;5610;52.154;9.198;2022-09-13T07:05:20;8.37;;;7.67;;
11113;SDS011;5610;52.154;9.198;2022-09-13T07:08:07;9.90;;;7.80;;
11113;SDS011;5610;52.154;9.198;2022-09-13T07:10:55;8.80;;;8.10;;
11113;SDS011;5610;52.154;9.198;2022-09-13T07:13:41;8.70;;;7.57;;
11113;SDS011;5610;52.154;9.198;2022-09-13T07:16:27;7.63;;;6.83;;
11113;SDS011;5610;52.154;9.198;2022-09-13T07:19:14;7.60;;;6.97;;
11113;SDS011;5610;52.154;9.198;2022-09-13T07:22:01;8.10;;;7.17;;
11113;SDS011;5610;52.154;9.198;2022-09-13T07:24:48;8.37;;;7.57;;
11113;SDS011;5610;52.154;9.198;2022-09-13T07:27:34;7.67;;;6.83;;
11113;SDS011;5610;52.154;9.198;2022-09-13T07:30:19;8.07;;;7.27;;
11113;SDS011;5610;52.154;9.198;2022-09-13T07:33:04;8.10;;;7.27;;
11113;SDS011;5610;52.154;9.198;2022-09-13T07:35:53;7.90;;;7.20;;
11113;SDS011;5610;52.154;9.198;2022-09-13T07:38:39;8.00;;;7.30;;
11113;SDS011;5610;52.154;9.198;2022-09-13T07:41:27;7.93;;;7.17;;
11113;SDS011;5610;52.154;9.198;2022-09-13T07:44:13;8.10;;;7.40;;
11113;SDS011;5610;52.154;9.198;2022-09-13T07:46:58;9.90;;;7.73;;
11113;SDS011;5610;52.154;9.198;2022-09-13T07:49:43;7.23;;;6.63;;
11113;SDS011;5610;52.154;9.198;2022-09-13T07:52:29;8.20;;;7.40;;
11113;SDS011;5610;52.154;9.198;2022-09-13T07:55:14;7.47;;;6.77;;
11113;SDS011;5610;52.154;9.198;2022-09-13T07:58:01;8.07;;;6.53;;
11113;SDS011;5610;52.154;9.198;2022-09-13T08:00:46;9.33;;;6.60;;
11113;SDS011;5610;52.154;9.198;2022-09-13T08:03:31;7.63;;;6.83;;
11113;SDS011;5610;52.154;9.198;2022-09-13T08:06:17;7.93;;;7.23;;
11113;SDS011;5610;52.154;9.198;2022-09-13T08:09:03;7.60;;;7.00;;
11113;SDS011;5610;52.154;9.198;2022-09-13T08:11:50;6.80;;;6.30;;
11113;SDS011;5610;52.154;9.198;2022-09-13T08:14:37;8.20;;;7.53;;
11113;SDS011;5610;52.154;9.198;2022-09-13T08:17:22;9.23;;;7.03;;
11113;SDS011;5610;52.154;9.198;2022-09-13T08:20:08;11.03;;;8.67;;
11113;SDS011;5610;52.154;9.198;2022-09-13T08:22:53;8.83;;;8.00;;
11113;SDS011;5610;52.154;9.198;2022-09-13T08:25:38;9.00;;;8.00;;
11113;SDS011;5610;52.154;9.198;2022-09-13T08:28:24;8.27;;;7.47;;
11113;SDS011;5610;52.154;9.198;2022-09-13T08:31:12;8.40;;;7.70;;
11113;SDS011;5610;52.154;9.198;2022-09-13T08:34:00;8.20;;;7.40;;
11113;SDS011;5610;52.154;9.198;2022-09-13T08:36:46;9.23;;;7.77;;
11113;SDS011;5610;52.154;9.198;2022-09-13T08:39:31;10.17;;;8.07;;
11113;SDS011;5610;52.154;9.198;2022-09-13T08:42:18;8.00;;;7.20;;
11113;SDS011;5610;52.154;9.198;2022-09-13T08:45:12;9.70;;;8.70;;
11113;SDS011;5610;52.154;9.198;2022-09-13T08:48:02;8.70;;;7.90;;
11113;SDS011;5610;52.154;9.198;2022-09-13T08:50:54;8.77;;;7.97;;
11113;SDS011;5610;52.154;9.198;2022-09-13T08:53:47;9.13;;;8.20;;
11113;SDS011;5610;52.154;9.198;2022-09-13T08:56:35;9.23;;;8.33;;
11113;SDS011;5610;52.154;9.198;2022-09-13T08:59:33;9.50;;;8.07;;
11113;SDS011;5610;52.154;9.198;2022-09-13T09:02:50;8.90;;;8.00;;
11113;SDS011;5610;52.154;9.198;2022-09-13T09:05:46;11.03;;;7.80;;
11113;SDS011;5610;52.154;9.198;2022-09-13T09:08:36;9.17;;;8.10;;
11113;SDS011;5610;52.154;9.198;2022-09-13T09:11:28;10.73;;;8.70;;
11113;SDS011;5610;52.154;9.198;2022-09-13T09:14:19;8.93;;;8.23;;
11113;SDS011;5610;52.154;9.198;2022-09-13T09:17:15;9.00;;;8.20;;
11113;SDS011;5610;52.154;9.198;2022-09-13T09:20:07;8.23;;;7.50;;
11113;SDS011;5610;52.154;9.198;2022-09-13T09:23:04;8.80;;;8.00;;
11113;SDS011;5610;52.154;9.198;2022-09-13T09:25:59;9.83;;;8.30;;
11113;SDS011;5610;52.154;9.198;2022-09-13T09:28:55;8.77;;;7.97;;
11113;SDS011;5610;52.154;9.198;2022-09-13T09:31:43;8.80;;;7.97;;
11113;SDS011;5610;52.154;9.198;2022-09-13T09:34:40;9.30;;;8.27;;
11113;SDS011;5610;52.154;9.198;2022-09-13T09:37:36;10.23;;;9.10;;
11113;SDS011;5610;52.154;9.198;2022-09-13T09:40:24;12.17;;;8.83;;
11113;SDS011;5610;52.154;9.198;2022-09-13T09:43:13;11.30;;;9.10;;
11113;SDS011;5610;52.154;9.198;2022-09-13T09:46:04;10.07;;;8.60;;
11113;SDS011;5610;52.154;9.198;2022-09-13T09:48:53;8.53;;;7.80;;
11113;SDS011;5610;52.154;9.198;2022-09-13T09:51:40;12.60;;;8.10;;
11113;SDS011;5610;52.154;9.198;2022-09-13T09:54:25;10.03;;;9.00;;
11113;SDS011;5610;52.154;9.198;2022-09-13T09:57:15;9.67;;;8.70;;
11113;SDS011;5610;52.154;9.198;2022-09-13T10:00:09;10.60;;;8.00;;
11113;SDS011;5610;52.154;9.198;2022-09-13T10:02:56;9.43;;;8.60;;
11113;SDS011;5610;52.154;9.198;2022-09-13T10:05:44;9.30;;;8.40;;
11113;SDS011;5610;52.154;9.198;2022-09-13T10:08:32;9.93;;;8.93;;
11113;SDS011;5610;52.154;9.198;2022-09-13T10:11:20;8.23;;;7.53;;
11113;SDS011;5610;52.154;9.198;2022-09-13T10:14:21;9.60;;;8.30;;
11113;SDS011;5610;52.154;9.198;2022-09-13T10:17:16;10.43;;;8.00;;
11113;SDS011;5610;52.154;9.198;2022-09-13T10:20:05;10.30;;;9.30;;
11113;SDS011;5610;52.154;9.198;2022-09-13T10:23:09;9.57;;;8.67;;
11113;SDS011;5610;52.154;9.198;2022-09-13T10:26:08;10.97;;;9.97;;
11113;SDS011;5610;52.154;9.198;2022-09-13T10:28:58;10.97;;;9.33;;
11113;SDS011;5610;52.154;9.198;2022-09-13T10:31:50;9.60;;;8.70;;
11113;SDS011;5610;52.154;9.198;2022-09-13T10:34:40;9.30;;;8.50;;
11113;SDS011;5610;52.154;9.198;2022-09-13T10:37:29;10.60;;;8.80;;
11113;SDS011;5610;52.154;9.198;2022-09-13T10:40:18;11.97;;;9.23;;
11113;SDS011;5610;52.154;9.198;2022-09-13T10:43:12;9.73;;;8.83;;
11113;SDS011;5610;52.154;9.198;2022-09-13T10:46:02;10.33;;;9.43;;
11113;SDS011;5610;52.154;9.198;2022-09-13T10:48:50;10.73;;;9.20;;
11113;SDS011;5610;52.154;9.198;2022-09-13T10:51:38;9.80;;;8.90;;
11113;SDS011;5610;52.154;9.198;2022-09-13T10:54:24;9.33;;;8.23;;
11113;SDS011;5610;52.154;9.198;2022-09-13T10:57:19;9.80;;;8.00;;
11113;SDS011;5610;52.154;9.198;2022-09-13T11:00:16;8.87;;;7.70;;
11113;SDS011;5610;52.154;9.198;2022-09-13T11:03:06;10.17;;;9.17;;
11113;SDS011;5610;52.154;9.198;2022-09-13T11:06:08;11.00;;;8.00;;
11113;SDS011;5610;52.154;9.198;2022-09-13T11:09:01;9.53;;;8.60;;
11113;SDS011;5610;52.154;9.198;2022-09-13T11:11:54;9.87;;;8.80;;
11113;SDS011;5610;52.154;9.198;2022-09-13T11:14:51;7.10;;;6.50;;
11113;SDS011;5610;52.154;9.198;2022-09-13T11:17:53;8.77;;;7.33;;
11113;SDS011;5610;52.154;9.198;2022-09-13T11:21:02;9.20;;;8.20;;
11113;SDS011;5610;52.154;9.198;2022-09-13T11:24:07;9.43;;;8.60;;
11113;SDS011;5610;52.154;9.198;2022-09-13T11:27:03;10.13;;;9.20;;
11113;SDS011;5610;52.154;9.198;2022-09-13T11:30:02;10.73;;;8.90;;
11113;SDS011;5610;52.154;9.198;2022-09-13T11:36:28;9.33;;;8.60;;
11113;SDS011;5610;52.154;9.198;2022-09-13T11:39:29;9.63;;;8.63;;
11113;SDS011;5610;52.154;9.198;2022-09-13T11:42:19;9.97;;;9.07;;
11113;SDS011;5610;52.154;9.198;2022-09-13T11:45:23;9.63;;;8.63;;
11113;SDS011;5610;52.154;9.198;2022-09-13T11:48:18;10.70;;;9.57;;
11113;SDS011;5610;52.154;9.198;2022-09-13T11:51:15;8.60;;;7.80;;
11113;SDS011;5610;52.154;9.198;2022-09-13T11:54:15;9.37;;;8.40;;
11113;SDS011;5610;52.154;9.198;2022-09-13T11:57:13;10.60;;;9.70;;
11113;SDS011;5610;52.154;9.198;2022-09-13T12:00:04;11.20;;;10.07;;
11113;SDS011;5610;52.154;9.198;2022-09-13T12:02:57;10.90;;;9.80;;
11113;SDS011;5610;52.154;9.198;2022-09-13T12:05:48;12.03;;;10.97;;
11113;SDS011;5610;52.154;9.198;2022-09-13T12:08:39;10.93;;;9.93;;
11113;SDS011;5610;52.154;9.198;2022-09-13T12:11:28;9.83;;;8.90;;
11113;SDS011;5610;52.154;9.198;2022-09-13T12:14:18;10.50;;;9.40;;
11113;SDS011;5610;52.154;9.198;2022-09-13T12:17:10;10.10;;;9.20;;
11113;SDS011;5610;52.154;9.198;2022-09-13T12:20:02;11.33;;;10.17;;
11113;SDS011;5610;52.154;9.198;2022-09-13T12:22:51;11.47;;;10.47;;
11113;SDS011;5610;52.154;9.198;2022-09-13T12:25:40;11.90;;;10.90;;
11113;SDS011;5610;52.154;9.198;2022-09-13T12:28:35;11.47;;;10.40;;
11113;SDS011;5610;52.154;9.198;2022-09-13T12:31:26;10.93;;;9.80;;
11113;SDS011;5610;52.154;9.198;2022-09-13T12:34:14;10.00;;;9.00;;
11113;SDS011;5610;52.154;9.198;2022-09-13T12:37:22;11.40;;;10.13;;
11113;SDS011;5610;52.154;9.198;2022-09-13T12:40:27;9.80;;;8.90;;
11113;SDS011;5610;52.154;9.198;2022-09-13T12:43:30;9.60;;;8.80;;
11113;SDS011;5610;52.154;9.198;2022-09-13T12:46:36;11.00;;;10.00;;
11113;SDS011;5610;52.154;9.198;2022-09-13T12:49:37;10.50;;;9.50;;
11113;SDS011;5610;52.154;9.198;2022-09-13T12:52:35;10.00;;;9.03;;
11113;SDS011;5610;52.154;9.198;2022-09-13T12:55:35;9.40;;;8.60;;
11113;SDS011;5610;52.154;9.198;2022-09-13T12:58:46;10.90;;;9.20;;
11113;SDS011;5610;52.154;9.198;2022-09-13T13:01:44;9.77;;;8.77;;
11113;SDS011;5610;52.154;9.198;2022-09-13T13:04:31;9.63;;;8.73;;
11113;SDS011;5610;52.154;9.198;2022-09-13T13:07:19;10.33;;;9.13;;
11113;SDS011;5610;52.154;9.198;2022-09-13T13:10:20;8.80;;;8.00;;
11113;SDS011;5610;52.154;9.198;2022-09-13T13:13:10;8.63;;;7.83;;
11113;SDS011;5610;52.154;9.198;2022-09-13T13:16:01;8.47;;;7.77;;
11113;SDS011;5610;52.154;9.198;2022-09-13T13:18:49;8.57;;;7.87;;
11113;SDS011;5610;52.154;9.198;2022-09-13T13:21:36;9.07;;;8.13;;
11113;SDS011;5610;52.154;9.198;2022-09-13T13:27:40;9.87;;;7.13;;
11113;SDS011;5610;52.154;9.198;2022-09-13T13:33:50;8.53;;;6.80;;
11113;SDS011;5610;52.154;9.198;2022-09-13T13:36:42;7.90;;;6.43;;
11113;SDS011;5610;52.154;9.198;2022-09-13T13:39:32;6.43;;;5.83;;
11113;SDS011;5610;52.154;9.198;2022-09-13T13:42:23;6.73;;;5.97;;
11113;SDS011;5610;52.154;9.198;2022-09-13T13:45:19;6.67;;;5.97;;
11113;SDS011;5610;52.154;9.198;2022-09-13T13:48:09;6.37;;;5.77;;
11113;SDS011;5610;52.154;9.198;2022-09-13T13:51:17;6.67;;;5.67;;
11113;SDS011;5610;52.154;9.198;2022-09-13T13:54:26;6.13;;;5.27;;
11113;SDS011;5610;52.154;9.198;2022-09-13T13:57:19;6.53;;;5.93;;
11113;SDS011;5610;52.154;9.198;2022-09-13T14:00:10;8.03;;;5.53;;
11113;SDS011;5610;52.154;9.198;2022-09-13T14:03:04;4.87;;;4.47;;
11113;SDS011;5610;52.154;9.198;2022-09-13T14:06:01;4.97;;;4.23;;
11113;SDS011;5610;52.154;9.198;2022-09-13T14:08:58;5.27;;;3.90;;
11113;SDS011;5610;52.154;9.198;2022-09-13T14:11:53;5.20;;;4.20;;
11113;SDS011;5610;52.154;9.198;2022-09-13T14:14:54;5.20;;;4.70;;
11113;SDS011;5610;52.154;9.198;2022-09-13T14:17:51;4.67;;;4.27;;
11113;SDS011;5610;52.154;9.198;2022-09-13T14:20:58;5.37;;;4.97;;
11113;SDS011;5610;52.154;9.198;2022-09-13T14:23:44;4.97;;;4.50;;
11113;SDS011;5610;52.154;9.198;2022-09-13T14:26:32;5.73;;;5.13;;
11113;SDS011;5610;52.154;9.198;2022-09-13T14:29:19;5.30;;;4.80;;
11113;SDS011;5610;52.154;9.198;2022-09-13T14:32:10;8.23;;;5.70;;
11113;SDS011;5610;52.154;9.198;2022-09-13T14:35:05;6.47;;;5.17;;
11113;SDS011;5610;52.154;9.198;2022-09-13T14:38:11;4.83;;;4.43;;
11113;SDS011;5610;52.154;9.198;2022-09-13T14:41:11;4.60;;;4.10;;
11113;SDS011;5610;52.154;9.198;2022-09-13T14:46:53;6.40;;;4.40;;
11113;SDS011;5610;52.154;9.198;2022-09-13T14:49:53;4.77;;;4.37;;
11113;SDS011;5610;52.154;9.198;2022-09-13T14:52:46;4.97;;;4.57;;
11113;SDS011;5610;52.154;9.198;2022-09-13T14:55:35;5.77;;;5.10;;
11113;SDS011;5610;52.154;9.198;2022-09-13T14:58:26;6.13;;;4.80;;
11113;SDS011;5610;52.154;9.198;2022-09-13T15:01:16;5.33;;;4.80;;
11113;SDS011;5610;52.154;9.198;2022-09-13T15:04:06;7.47;;;5.10;;
11113;SDS011;5610;52.154;9.198;2022-09-13T15:07:04;5.40;;;4.80;;
11113;SDS011;5610;52.154;9.198;2022-09-13T15:09:54;7.20;;;6.43;;
11113;SDS011;5610;52.154;9.198;2022-09-13T15:12:48;4.60;;;4.30;;
11113;SDS011;5610;52.154;9.198;2022-09-13T15:15:35;6.63;;;5.00;;
11113;SDS011;5610;52.154;9.198;2022-09-13T15:18:24;7.43;;;4.60;;
11113;SDS011;5610;52.154;9.198;2022-09-13T15:21:15;4.70;;;4.30;;
11113;SDS011;5610;52.154;9.198;2022-09-13T15:24:02;4.43;;;4.03;;
11113;SDS011;5610;52.154;9.198;2022-09-13T15:26:47;4.70;;;4.30;;
11113;SDS011;5610;52.154;9.198;2022-09-13T15:29:33;4.27;;;3.83;;
11113;SDS011;5610;52.154;9.198;2022-09-13T15:32:21;4.53;;;3.90;;
11113;SDS011;5610;52.154;9.198;2022-09-13T15:35:17;3.50;;;3.20;;
11113;SDS011;5610;52.154;9.198;2022-09-13T15:38:15;3.70;;;3.40;;
11113;SDS011;5610;52.154;9.198;2022-09-13T15:41:11;3.83;;;3.43;;
11113;SDS011;5610;52.154;9.198;2022-09-13T15:43:58;3.60;;;3.40;;
11113;SDS011;5610;52.154;9.198;2022-09-13T15:46:45;3.07;;;2.87;;
11113;SDS011;5610;52.154;9.198;2022-09-13T15:49:32;4.10;;;3.60;;
11113;SDS011;5610;52.154;9.198;2022-09-13T15:52:18;3.37;;;3.07;;
11113;SDS011;5610;52.154;9.198;2022-09-13T15:55:10;4.03;;;3.13;;
11113;SDS011;5610;52.154;9.198;2022-09-13T15:57:55;3.30;;;3.00;;
11113;SDS011;5610;52.154;9.198;2022-09-13T16:00:41;5.60;;;3.20;;
11113;SDS011;5610;52.154;9.198;2022-09-13T16:03:26;2.60;;;2.40;;
11113;SDS011;5610;52.154;9.198;2022-09-13T16:06:11;3.00;;;2.80;;
11113;SDS011;5610;52.154;9.198;2022-09-13T16:08:56;3.17;;;2.60;;
11113;SDS011;5610;52.154;9.198;2022-09-13T16:11:44;2.77;;;2.57;;
11113;SDS011;5610;52.154;9.198;2022-09-13T16:14:30;2.77;;;2.57;;
11113;SDS011;5610;52.154;9.198;2022-09-13T16:17:17;3.00;;;2.70;;
11113;SDS011;5610;52.154;9.198;2022-09-13T16:20:06;2.80;;;2.60;;
11113;SDS011;5610;52.154;9.198;2022-09-13T16:22:55;2.90;;;2.60;;
11113;SDS011;5610;52.154;9.198;2022-09-13T16:25:40;2.33;;;2.10;;
11113;SDS011;5610;52.154;9.198;2022-09-13T16:28:27;2.00;;;1.80;;
11113;SDS011;5610;52.154;9.198;2022-09-13T16:31:13;2.83;;;1.90;;
11113;SDS011;5610;52.154;9.198;2022-09-13T16:33:59;2.33;;;1.90;;
11113;SDS011;5610;52.154;9.198;2022-09-13T16:36:44;3.10;;;1.80;;
11113;SDS011;5610;52.154;9.198;2022-09-13T16:39:29;3.13;;;1.90;;
11113;SDS011;5610;52.154;9.198;2022-09-13T16:42:15;2.13;;;1.93;;
11113;SDS011;5610;52.154;9.198;2022-09-13T16:45:02;3.43;;;1.70;;
11113;SDS011;5610;52.154;9.198;2022-09-13T16:47:48;2.93;;;1.93;;
11113;SDS011;5610;52.154;9.198;2022-09-13T16:50:33;3.03;;;2.20;;
11113;SDS011;5610;52.154;9.198;2022-09-13T16:53:19;3.83;;;1.80;;
11113;SDS011;5610;52.154;9.198;2022-09-13T16:56:04;4.20;;;1.50;;
11113;SDS011;5610;52.154;9.198;2022-09-13T16:58:50;3.40;;;1.97;;
11113;SDS011;5610;52.154;9.198;2022-09-13T17:01:37;6.33;;;1.80;;
11113;SDS011;5610;52.154;9.198;2022-09-13T17:04:23;4.50;;;2.23;;
11113;SDS011;5610;52.154;9.198;2022-09-13T17:07:08;4.60;;;2.10;;
11113;SDS011;5610;52.154;9.198;2022-09-13T17:09:53;5.23;;;1.90;;
11113;SDS011;5610;52.154;9.198;2022-09-13T17:12:39;5.97;;;2.50;;
11113;SDS011;5610;52.154;9.198;2022-09-13T17:15:24;3.57;;;2.20;;
11113;SDS011;5610;52.154;9.198;2022-09-13T17:18:11;2.70;;;2.10;;
11113;SDS011;5610;52.154;9.198;2022-09-13T17:20:56;8.13;;;2.40;;
11113;SDS011;5610;52.154;9.198;2022-09-13T17:23:43;4.73;;;2.20;;
11113;SDS011;5610;52.154;9.198;2022-09-13T17:26:28;5.73;;;2.03;;
11113;SDS011;5610;52.154;9.198;2022-09-13T17:29:13;7.20;;;2.10;;
11113;SDS011;5610;52.154;9.198;2022-09-13T17:31:59;6.00;;;2.10;;
11113;SDS011;5610;52.154;9.198;2022-09-13T17:34:47;5.80;;;2.00;;